Terminal Aerodrome Forecast
Issued by NWS

Home | Current Version | Previous Version | Text Only | Print | Product List | Glossary On
Versions: 1 2 3 4 5 6 7 8 9 10 11 12 13 14 15 16 17 18 19 20 21 22 23 24 25 26 27 28 29 30 31 32 33 34 35
000
FTUS41 KRNK 260520
TAFBCB
TAF
KBCB 260520Z 2606/2706 10005KT P6SM OVC080
     FM260900 VRB03KT 4SM -RA BR OVC020
     FM261100 VRB03KT 1SM -RA BR OVC007
     FM261500 29003KT 2SM -RA BR OVC012
     FM262200 30012G22KT 5SM BR OVC022=

USA.gov is the U.S. government's official web portal to all federal, state and local government web resources and services.